Time;durP1;ratioP1;P1;durP2;ratioP2;P2;SDS_P1;SDS_P2;PMS_P1;PMS_P2;Temp;Humidity;BMP_temperature;BMP_pressure;BME280_temperature;BME280_humidity;BME280_pressure;Samples;Min_cycle;Max_cycle;Signal;HPM_P1;HPM_P2
2024/03/17 00:02:22;;;;;;;0.10;0.10;;;;;;;;;;4947347;29;20031;-90
2024/03/17 00:04:48;;;;;;;0.05;0.05;;;;;;;;;;4945309;29;20056;-90
2024/03/17 00:07:14;;;;;;;0.10;0.10;;;;;;;;;;4949414;29;20012;-89
2024/03/17 00:09:40;;;;;;;0.10;0.10;;;;;;;;;;4951391;29;20035;-89
2024/03/17 00:12:07;;;;;;;0.10;0.10;;;;;;;;;;4940304;29;20032;-89
2024/03/17 00:14:34;;;;;;;0.10;0.10;;;;;;;;;;4943966;29;20399;-89
2024/03/17 00:17:00;;;;;;;0.10;0.10;;;;;;;;;;4947577;29;20016;-91
2024/03/17 00:19:26;;;;;;;0.10;0.10;;;;;;;;;;4949043;29;20031;-87
2024/03/17 00:21:52;;;;;;;0.10;0.10;;;;;;;;;;4943917;29;20501;-90
2024/03/17 00:24:19;;;;;;;0.10;0.10;;;5.10;99.90;;;;;;4952095;29;20027;-93
2024/03/17 00:26:45;;;;;;;0.10;0.10;;;;;;;;;;4945754;29;20094;-90
2024/03/17 00:29:11;;;;;;;0.05;0.05;;;;;;;;;;4947106;29;20040;-92
2024/03/17 00:31:37;;;;;;;0.10;0.10;;;;;;;;;;4945341;29;20036;-92
2024/03/17 00:34:04;;;;;;;0.10;0.10;;;;;;;;;;4951144;29;20031;-87
2024/03/17 00:36:31;;;;;;;0.10;0.10;;;;;;;;;;4947598;29;20100;-94
2024/03/17 00:38:57;;;;;;;0.10;0.10;;;;;;;;;;4952127;29;20039;-89
2024/03/17 00:41:23;;;;;;;0.10;0.10;;;;;;;;;;4944695;29;20028;-88
2024/03/17 00:43:50;;;;;;;0.10;0.10;;;;;;;;;;4946908;29;20027;-89
2024/03/17 00:46:16;;;;;;;0.10;0.10;;;;;;;;;;4947705;29;20035;-89
2024/03/17 00:48:42;;;;;;;0.10;0.10;;;;;;;;;;4950299;29;20051;-89
2024/03/17 00:51:08;;;;;;;0.10;0.10;;;;;;;;;;4946850;29;20039;-90
2024/03/17 00:53:34;;;;;;;0.10;0.10;;;;;;;;;;4948730;29;20027;-90
2024/03/17 00:56:01;;;;;;;0.00;0.00;;;;;;;;;;4949951;29;20039;-90
2024/03/17 00:58:28;;;;;;;0.00;0.00;;;;;;;;;;4942596;29;20586;-87
2024/03/17 01:00:54;;;;;;;0.03;0.03;;;;;;;;;;4948364;29;20057;-91
2024/03/17 01:03:20;;;;;;;0.00;0.00;;;;;;;;;;4949137;29;20035;-91
2024/03/17 01:05:47;;;;;;;0.10;0.10;;;;;;;;;;4947812;29;20067;-89
2024/03/17 01:08:17;;;;;;;0.10;0.10;;;;;;;;;;4951556;29;20036;-91
2024/03/17 01:10:43;;;;;;;0.10;0.10;;;;;;;;;;4948388;29;20047;-90
2024/03/17 01:13:09;;;;;;;0.00;0.00;;;;;;;;;;4948064;29;20031;-93
2024/03/17 01:15:36;;;;;;;0.10;0.10;;;;;;;;;;4947181;29;20572;-91
2024/03/17 01:18:04;;;;;;;0.10;0.10;;;;;;;;;;4944585;29;20471;-92
2024/03/17 01:20:30;;;;;;;0.10;0.10;;;;;;;;;;4950422;29;20008;-92
2024/03/17 01:22:56;;;;;;;0.05;0.05;;;;;;;;;;4951335;29;20032;-91
2024/03/17 01:25:22;;;;;;;0.10;0.10;;;;;;;;;;4949633;29;20024;-90
2024/03/17 01:27:47;;;;;;;0.10;0.10;;;;;;;;;;4943371;29;20048;-91
2024/03/17 01:30:14;;;;;;;0.10;0.10;;;;;;;;;;4949831;29;20055;-92
2024/03/17 01:32:40;;;;;;;0.10;0.10;;;;;;;;;;4952367;29;20036;-91
2024/03/17 01:35:06;;;;;;;0.10;0.10;;;;;;;;;;4947471;29;20039;-92
2024/03/17 01:37:32;;;;;;;0.10;0.10;;;;;;;;;;4951305;29;20034;-91
2024/03/17 01:39:58;;;;;;;0.10;0.10;;;;;;;;;;4941679;29;20494;-90
2024/03/17 01:42:24;;;;;;;0.10;0.10;;;;;;;;;;4948034;29;20028;-91
2024/03/17 01:44:50;;;;;;;0.00;0.00;;;;;;;;;;4950838;29;20121;-93
2024/03/17 01:47:18;;;;;;;0.10;0.10;;;;;;;;;;4953066;29;20055;-92
2024/03/17 01:49:44;;;;;;;0.10;0.10;;;;;;;;;;4950248;29;20024;-94
2024/03/17 01:52:10;;;;;;;0.10;0.10;;;;;;;;;;4951710;29;20020;-93
2024/03/17 01:54:37;;;;;;;0.10;0.10;;;;;;;;;;4950990;29;20031;-95
2024/03/17 01:57:03;;;;;;;0.10;0.10;;;;;;;;;;4951938;29;20040;-93
2024/03/17 01:59:29;;;;;;;0.10;0.10;;;;;;;;;;4950515;29;20103;-90
2024/03/17 02:01:55;;;;;;;0.10;0.10;;;;;;;;;;4947007;29;20023;-92
2024/03/17 02:04:22;;;;;;;0.10;0.10;;;;;;;;;;4950009;29;20032;-93
2024/03/17 02:06:48;;;;;;;0.10;0.10;;;;;;;;;;4948664;29;20042;-92
2024/03/17 02:09:13;;;;;;;0.10;0.10;;;;;;;;;;4949407;29;20056;-94
2024/03/17 02:11:39;;;;;;;0.10;0.10;;;;;;;;;;4949570;29;20032;-89
2024/03/17 02:14:07;;;;;;;0.10;0.10;;;;;;;;;;4950570;29;20095;-93
2024/03/17 02:16:33;;;;;;;0.10;0.10;;;;;;;;;;4950878;29;20043;-93
2024/03/17 02:18:59;;;;;;;0.10;0.10;;;;;;;;;;4951822;29;20044;-93
2024/03/17 02:21:29;;;;;;;0.10;0.10;;;;;;;;;;4942641;28;20068;-94
2024/03/17 02:23:56;;;;;;;0.10;0.10;;;;;;;;;;4951367;29;20028;-96
2024/03/17 02:26:22;;;;;;;0.10;0.10;;;;;;;;;;4949251;29;20060;-94
2024/03/17 02:28:49;;;;;;;0.10;0.10;;;;;;;;;;4949806;29;20031;-91
2024/03/17 02:31:15;;;;;;;0.10;0.10;;;;;;;;;;4941739;29;20103;-89
2024/03/17 02:33:41;;;;;;;0.10;0.10;;;;;;;;;;4945988;29;20130;-94
2024/03/17 02:36:09;;;;;;;0.10;0.10;;;;;;;;;;4950534;29;20091;-93
2024/03/17 02:41:19;;;;;;;0.10;0.10;;;;;;;;;;4947747;29;20046;-90
2024/03/17 02:43:45;;;;;;;0.10;0.10;;;;;;;;;;4949262;29;20087;-91
2024/03/17 02:46:15;;;;;;;0.10;0.10;;;3.70;99.90;;;;;;4945756;29;20024;-94
2024/03/17 02:48:44;;;;;;;;;;;3.50;99.90;;;;;;4947059;29;20024;-95
2024/03/17 02:51:12;;;;;;;0.10;0.10;;;3.60;99.90;;;;;;4943861;29;19918;-93
2024/03/17 02:53:38;;;;;;;0.10;0.10;;;;;;;;;;4950896;29;20031;-93
2024/03/17 02:56:04;;;;;;;0.10;0.10;;;;;;;;;;4946767;29;20059;-91
2024/03/17 02:58:30;;;;;;;0.10;0.10;;;;;;;;;;4950401;29;20047;-96
2024/03/17 03:00:56;;;;;;;0.10;0.10;;;;;;;;;;4942100;29;20099;-93
2024/03/17 03:03:22;;;;;;;0.10;0.10;;;;;;;;;;4945666;29;20035;-92
2024/03/17 03:05:48;;;;;;;0.10;0.10;;;;;;;;;;4944190;29;20028;-90
2024/03/17 03:08:14;;;;;;;0.10;0.10;;;;;;;;;;4944517;29;20028;-93
2024/03/17 03:13:14;;;;;;;0.10;0.10;;;;;;;;;;4896520;29;20064;-91
2024/03/17 03:15:40;;;;;;;0.10;0.10;;;;;;;;;;4906731;29;20024;-90
2024/03/17 03:18:05;;;;;;;0.10;0.10;;;3.60;99.90;;;;;;4909246;29;20411;-91
2024/03/17 03:20:31;;;;;;;0.10;0.10;;;;;;;;;;4894576;29;20118;-91
2024/03/17 03:22:57;;;;;;;0.10;0.10;;;;;;;;;;4892364;29;20040;-89
2024/03/17 03:25:23;;;;;;;0.10;0.10;;;;;;;;;;4894653;29;20040;-90
2024/03/17 03:27:50;;;;;;;0.10;0.10;;;;;;;;;;4891835;29;20063;-91
2024/03/17 03:30:20;;;;;;;0.10;0.10;;;;;;;;;;4888160;29;20444;-90
2024/03/17 03:32:47;;;;;;;0.10;0.10;;;;;;;;;;4896382;29;20048;-91
2024/03/17 03:35:14;;;;;;;0.10;0.10;;;;;;;;;;4892592;29;20479;-90
2024/03/17 03:37:41;;;;;;;0.10;0.10;;;;;;;;;;4894711;29;20093;-92
2024/03/17 03:40:19;;;;;;;0.10;0.10;;;3.40;99.90;;;;;;4892751;29;20032;-90
2024/03/17 03:42:47;;;;;;;0.10;0.10;;;3.40;99.90;;;;;;4893446;29;20025;-90
2024/03/17 03:45:13;;;;;;;0.10;0.10;;;;;;;;;;4892829;29;20028;-91
2024/03/17 03:47:42;;;;;;;0.10;0.10;;;3.40;99.90;;;;;;4893294;29;20756;-91
2024/03/17 03:50:09;;;;;;;0.10;0.10;;;3.40;99.90;;;;;;4894118;29;20037;-90
2024/03/17 03:52:35;;;;;;;0.10;0.10;;;;;;;;;;4889341;29;20025;-91
2024/03/17 03:55:01;;;;;;;0.10;0.10;;;;;;;;;;4894946;29;20040;-91
2024/03/17 03:57:29;;;;;;;0.10;0.10;;;;;;;;;;4894087;29;20029;-90
2024/03/17 03:59:55;;;;;;;0.10;0.10;;;;;;;;;;4892352;29;20127;-91
2024/03/17 04:02:21;;;;;;;0.10;0.10;;;;;;;;;;4893602;29;20326;-91
2024/03/17 04:04:47;;;;;;;0.10;0.10;;;;;;;;;;4897687;29;20033;-90
2024/03/17 04:07:13;;;;;;;0.10;0.10;;;;;;;;;;4894409;29;20510;-92
2024/03/17 04:09:39;;;;;;;0.10;0.10;;;;;;;;;;4892587;29;20039;-89
2024/03/17 04:12:05;;;;;;;0.03;0.03;;;3.00;99.90;;;;;;4893917;29;20340;-91
2024/03/17 04:14:31;;;;;;;0.00;0.00;;;;;;;;;;4894959;29;20032;-92
2024/03/17 04:16:58;;;;;;;0.10;0.10;;;;;;;;;;4893113;29;20388;-90
2024/03/17 04:19:24;;;;;;;0.10;0.10;;;;;;;;;;4895734;29;20041;-91
2024/03/17 04:21:50;;;;;;;0.10;0.10;;;;;;;;;;4893640;29;20522;-90
2024/03/17 04:24:16;;;;;;;0.10;0.10;;;;;;;;;;4897076;29;20419;-90
2024/03/17 04:26:43;;;;;;;0.05;0.05;;;;;;;;;;4896287;29;20032;-92
2024/03/17 04:29:09;;;;;;;0.00;0.00;;;;;;;;;;4892447;29;20032;-91
2024/03/17 04:31:35;;;;;;;0.10;0.10;;;;;;;;;;4899413;29;20464;-88
2024/03/17 04:34:01;;;;;;;0.10;0.10;;;;;;;;;;4898385;29;20033;-91
2024/03/17 04:36:27;;;;;;;0.00;0.00;;;;;;;;;;4894951;29;20092;-92
2024/03/17 04:38:54;;;;;;;0.10;0.10;;;;;;;;;;4895008;29;20507;-90
2024/03/17 04:41:20;;;;;;;0.10;0.10;;;;;;;;;;4896663;29;20065;-90
2024/03/17 04:43:46;;;;;;;0.03;0.03;;;;;;;;;;4895775;29;20040;-90
2024/03/17 04:46:13;;;;;;;0.10;0.10;;;;;;;;;;4899943;29;20040;-90
2024/03/17 04:48:39;;;;;;;0.00;0.00;;;;;;;;;;4895715;29;20040;-90
2024/03/17 04:51:05;;;;;;;0.00;0.00;;;;;;;;;;4897590;29;20053;-90
2024/03/17 04:53:31;;;;;;;0.10;0.10;;;;;;;;;;4897202;29;20037;-90
2024/03/17 04:55:59;;;;;;;0.00;0.00;;;3.20;99.90;;;;;;4894402;29;20044;-91
2024/03/17 04:58:25;;;;;;;0.10;0.10;;;;;;;;;;4895827;29;20619;-91
2024/03/17 05:00:51;;;;;;;0.10;0.10;;;;;;;;;;4898988;29;20052;-90
2024/03/17 05:03:17;;;;;;;0.10;0.10;;;;;;;;;;4893183;29;20033;-91
2024/03/17 05:05:43;;;;;;;0.10;0.10;;;;;;;;;;4891407;29;20068;-91
2024/03/17 05:08:09;;;;;;;0.10;0.10;;;;;;;;;;4900973;29;20029;-92
2024/03/17 05:10:35;;;;;;;0.10;0.10;;;;;;;;;;4896730;29;20051;-90
2024/03/17 05:13:01;;;;;;;0.05;0.05;;;;;;;;;;4896094;29;20043;-91
2024/03/17 05:15:27;;;;;;;0.10;0.10;;;;;;;;;;4898030;29;20064;-89
2024/03/17 05:17:53;;;;;;;0.10;0.10;;;;;;;;;;4909947;29;20036;-90
2024/03/17 05:20:19;;;;;;;0.10;0.10;;;;;;;;;;4903203;29;20040;-90
2024/03/17 05:22:47;;;;;;;0.00;0.00;;;;;;;;;;4894453;29;20051;-92
2024/03/17 05:25:13;;;;;;;0.10;0.10;;;;;;;;;;4898668;29;20436;-90
2024/03/17 05:27:39;;;;;;;0.08;0.08;;;;;;;;;;4898817;29;20025;-91
2024/03/17 05:30:08;;;;;;;0.03;0.03;;;;;;;;;;4894503;29;20041;-91
2024/03/17 05:32:34;;;;;;;0.00;0.00;;;;;;;;;;4913373;29;20407;-91
2024/03/17 05:35:01;;;;;;;0.10;0.10;;;;;;;;;;4891155;29;20037;-90
2024/03/17 05:37:27;;;;;;;0.10;0.10;;;;;;;;;;4893288;29;20037;-90
2024/03/17 05:39:54;;;;;;;0.00;0.00;;;;;;;;;;4909669;29;20032;-91
2024/03/17 05:42:20;;;;;;;0.10;0.10;;;;;;;;;;4892769;29;20118;-92
2024/03/17 05:44:53;;;;;;;0.10;0.10;;;;;;;;;;4894452;29;20115;-90
2024/03/17 05:47:19;;;;;;;0.10;0.10;;;;;;;;;;4892256;29;20043;-90
2024/03/17 05:49:45;;;;;;;0.10;0.10;;;;;;;;;;4893081;29;20075;-91
2024/03/17 05:52:11;;;;;;;0.10;0.10;;;;;;;;;;4892208;29;20536;-90
2024/03/17 05:54:37;;;;;;;0.00;0.00;;;;;;;;;;4893489;29;20032;-90
2024/03/17 05:57:04;;;;;;;0.10;0.10;;;;;;;;;;4894768;29;20116;-90
2024/03/17 05:59:31;;;;;;;0.10;0.10;;;;;;;;;;4896742;29;20036;-92
2024/03/17 06:01:57;;;;;;;0.08;0.08;;;;;;;;;;4910674;29;20391;-90
2024/03/17 06:04:24;;;;;;;0.10;0.10;;;;;;;;;;4898789;29;20028;-91
2024/03/17 06:06:50;;;;;;;0.10;0.10;;;;;;;;;;4897744;29;20028;-90
2024/03/17 06:09:19;;;;;;;0.10;0.10;;;;;;;;;;4892112;29;20087;-89
2024/03/17 06:11:44;;;;;;;0.10;0.10;;;;;;;;;;4894690;29;20085;-91
2024/03/17 06:14:11;;;;;;;0.03;0.03;;;;;;;;;;4894781;29;20036;-91
2024/03/17 06:16:37;;;;;;;0.10;0.10;;;;;;;;;;4907750;29;20044;-90
2024/03/17 06:19:03;;;;;;;0.10;0.10;;;;;;;;;;4912812;29;20033;-91
2024/03/17 06:21:29;;;;;;;0.00;0.00;;;;;;;;;;4894161;29;20036;-91
2024/03/17 06:23:56;;;;;;;0.10;0.10;;;;;;;;;;4893555;29;20484;-90
2024/03/17 06:26:22;;;;;;;0.10;0.10;;;;;;;;;;4895804;29;20029;-91
2024/03/17 06:28:48;;;;;;;0.10;0.10;;;;;;;;;;4896613;29;20079;-90
2024/03/17 06:31:15;;;;;;;0.10;0.10;;;;;;;;;;4893799;29;20452;-91
2024/03/17 06:33:41;;;;;;;0.10;0.10;;;;;;;;;;4901040;29;20111;-90
2024/03/17 06:36:07;;;;;;;0.10;0.10;;;4.20;99.90;;;;;;4903842;29;20120;-91
2024/03/17 06:38:33;;;;;;;0.10;0.10;;;;;;;;;;4896778;29;20059;-91
2024/03/17 06:40:59;;;;;;;0.10;0.10;;;;;;;;;;4896242;29;20463;-91
2024/03/17 06:43:25;;;;;;;0.00;0.00;;;;;;;;;;4894162;29;20159;-91
2024/03/17 06:45:58;;;;;;;0.10;0.10;;;4.60;99.90;;;;;;4895808;29;20426;-91
2024/03/17 06:48:24;;;;;;;0.10;0.10;;;;;;;;;;4899471;29;20036;-90
2024/03/17 06:50:52;;;;;;;0.10;0.10;;;;;;;;;;4891810;29;20063;-91
2024/03/17 06:53:18;;;;;;;0.10;0.10;;;;;;;;;;4895336;29;20036;-91
2024/03/17 06:55:46;;;;;;;0.10;0.10;;;;;;;;;;4894219;29;20496;-90
2024/03/17 06:58:12;;;;;;;0.10;0.10;;;;;;;;;;4893561;29;20060;-90
2024/03/17 07:00:42;;;;;;;0.00;0.00;;;;;;;;;;4905628;29;20036;-92
2024/03/17 07:03:08;;;;;;;0.10;0.10;;;;;;;;;;4893288;29;20046;-90
2024/03/17 07:05:34;;;;;;;0.10;0.10;;;;;;;;;;4893006;29;20123;-90
2024/03/17 07:08:00;;;;;;;0.00;0.00;;;;;;;;;;4890932;29;20183;-90
2024/03/17 07:10:26;;;;;;;0.10;0.10;;;;;;;;;;4890869;29;20039;-91
2024/03/17 07:12:54;;;;;;;0.00;0.00;;;5.30;99.90;;;;;;4894593;29;20024;-91
2024/03/17 07:15:20;;;;;;;0.10;0.10;;;;;;;;;;4889581;29;20028;-90
2024/03/17 07:17:46;;;;;;;0.10;0.10;;;;;;;;;;4893461;29;20461;-88
2024/03/17 07:20:12;;;;;;;0.10;0.10;;;;;;;;;;4893027;29;20033;-91
2024/03/17 07:22:38;;;;;;;0.10;0.10;;;;;;;;;;4889814;29;20037;-91
2024/03/17 07:25:04;;;;;;;0.10;0.10;;;5.20;99.90;;;;;;4895566;29;20043;-90
2024/03/17 07:27:31;;;;;;;0.10;0.10;;;;;;;;;;4893500;29;20040;-90
2024/03/17 07:29:57;;;;;;;0.10;0.10;;;;;;;;;;4908296;29;20029;-91
2024/03/17 07:32:23;;;;;;;0.00;0.00;;;5.50;99.90;;;;;;4895089;29;20032;-91
2024/03/17 07:34:49;;;;;;;0.10;0.10;;;;;;;;;;4889941;29;20037;-91
2024/03/17 07:37:16;;;;;;;0.05;0.05;;;;;;;;;;4895100;29;20112;-90
2024/03/17 07:39:41;;;;;;;0.10;0.10;;;;;;;;;;4893417;29;20033;-91
2024/03/17 07:42:07;;;;;;;0.05;0.05;;;;;;;;;;4892997;29;20385;-91
2024/03/17 07:44:34;;;;;;;0.10;0.10;;;;;;;;;;4894744;29;20029;-90
2024/03/17 07:47:06;;;;;;;0.10;0.10;;;;;;;;;;4892757;29;20032;-90
2024/03/17 07:49:32;;;;;;;0.10;0.10;;;;;;;;;;4891344;29;20051;-91
2024/03/17 07:51:58;;;;;;;0.10;0.10;;;;;;;;;;4908672;29;20484;-90
2024/03/17 07:54:27;;;;;;;0.10;0.10;;;;;;;;;;4893334;29;20033;-89
2024/03/17 07:56:53;;;;;;;0.10;0.10;;;;;;;;;;4891106;29;20460;-90
2024/03/17 07:59:19;;;;;;;0.00;0.00;;;;;;;;;;4898328;29;20115;-91
2024/03/17 08:01:45;;;;;;;0.10;0.10;;;;;;;;;;4899909;29;20107;-90
2024/03/17 08:04:11;;;;;;;0.00;0.00;;;;;;;;;;4896495;29;20032;-92
2024/03/17 08:06:38;;;;;;;0.10;0.10;;;7.00;99.90;;;;;;4895991;29;20024;-92
2024/03/17 08:09:04;;;;;;;0.10;0.10;;;;;;;;;;4896605;29;20407;-90
2024/03/17 08:11:30;;;;;;;0.10;0.10;;;;;;;;;;4900620;29;20039;-90
2024/03/17 08:13:56;;;;;;;0.00;0.00;;;;;;;;;;4897269;29;20510;-91
2024/03/17 08:16:22;;;;;;;0.10;0.10;;;;;;;;;;4897299;29;20551;-90
2024/03/17 08:18:48;;;;;;;0.10;0.10;;;;;;;;;;4902801;29;20054;-91
2024/03/17 08:21:14;;;;;;;0.00;0.00;;;;;;;;;;4913755;29;20617;-92
2024/03/17 08:23:42;;;;;;;0.10;0.10;;;;;;;;;;4896705;29;20035;-90
2024/03/17 08:26:11;;;;;;;0.00;0.00;;;;;;;;;;4889593;29;20033;-91
2024/03/17 08:28:37;;;;;;;0.10;0.10;;;;;;;;;;4913332;29;20075;-89
2024/03/17 08:31:04;;;;;;;0.00;0.00;;;7.30;99.90;;;;;;4893646;29;20518;-90
2024/03/17 08:33:30;;;;;;;0.05;0.05;;;7.20;99.90;;;;;;4899651;29;20032;-90
2024/03/17 08:36:07;;;;;;;0.10;0.10;;;7.10;99.90;;;;;;4899395;29;20029;-90
2024/03/17 08:38:34;;;;;;;0.08;0.08;;;7.10;99.90;;;;;;4898578;29;20044;-91
2024/03/17 08:41:07;;;;;;;0.10;0.10;;;7.20;99.90;;;;;;4898278;29;20075;-90
2024/03/17 08:43:34;;;;;;;0.10;0.10;;;7.20;99.90;;;;;;4905444;29;20040;-90
2024/03/17 08:46:03;;;;;;;0.10;0.10;;;7.50;99.90;;;;;;4893083;29;20043;-91
2024/03/17 08:48:30;;;;;;;0.00;0.00;;;;;;;;;;4900450;29;20025;-90
2024/03/17 08:50:56;;;;;;;0.10;0.10;;;;;;;;;;4897824;29;20028;-90
2024/03/17 08:53:22;;;;;;;0.10;0.10;;;;;;;;;;4905267;29;20024;-90
2024/03/17 08:55:48;;;;;;;0.10;0.10;;;;;;;;;;4896405;29;20040;-91
2024/03/17 08:58:14;;;;;;;0.10;0.10;;;;;;;;;;4898769;29;20115;-90
2024/03/17 09:00:41;;;;;;;0.00;0.00;;;;;;;;;;4900161;29;20533;-90
2024/03/17 09:03:14;;;;;;;0.10;0.10;;;;;;;;;;4898196;29;20040;-89
2024/03/17 09:05:40;;;;;;;0.10;0.10;;;;;;;;;;4899100;29;20063;-91
2024/03/17 09:08:28;;;;;;;0.10;0.10;;;7.80;99.90;;;;;;4896494;29;20047;-90
2024/03/17 09:18:35;;;;;;;0.10;0.10;;;8.10;99.90;;;;;;4924464;29;20049;-93
2024/03/17 09:21:01;;;;;;;0.10;0.10;;;;;;;;;;4929256;29;20035;-93
2024/03/17 09:23:28;;;;;;;0.10;0.10;;;;;;;;;;4917206;29;20045;-91
2024/03/17 09:25:57;;;;;;;0.10;0.10;;;;;;;;;;4914513;29;20034;-93
2024/03/17 09:28:23;;;;;;;0.10;0.10;;;;;;;;;;4916570;29;20170;-92
2024/03/17 09:30:49;;;;;;;0.00;0.00;;;;;;;;;;4914843;29;20056;-93
2024/03/17 09:33:15;;;;;;;0.10;0.10;;;;;;;;;;4920816;29;20423;-93
2024/03/17 09:35:41;;;;;;;0.00;0.00;;;;;;;;;;4911319;29;20343;-93
2024/03/17 09:38:07;;;;;;;0.00;0.00;;;;;;;;;;4908362;29;20074;-92
2024/03/17 09:40:33;;;;;;;0.10;0.10;;;;;;;;;;4910080;29;20510;-92
2024/03/17 09:42:59;;;;;;;0.10;0.10;;;;;;;;;;4909686;29;20499;-93
2024/03/17 09:45:25;;;;;;;0.10;0.10;;;;;;;;;;4909596;29;20036;-92
2024/03/17 09:47:51;;;;;;;0.10;0.10;;;;;;;;;;4912287;29;20399;-92
2024/03/17 09:50:18;;;;;;;0.00;0.00;;;;;;;;;;4920066;29;20113;-92
2024/03/17 09:52:45;;;;;;;0.00;0.00;;;;;;;;;;4915194;29;20029;-92
2024/03/17 09:55:17;;;;;;;0.10;0.10;;;;;;;;;;4913651;29;20064;-93
2024/03/17 09:57:44;;;;;;;0.10;0.10;;;;;;;;;;4913671;29;20491;-93
2024/03/17 10:00:15;;;;;;;0.10;0.10;;;;;;;;;;4913229;29;20032;-92
2024/03/17 10:02:45;;;;;;;0.00;0.00;;;;;;;;;;4908011;29;20515;-92
2024/03/17 10:05:21;;;;;;;0.10;0.10;;;;;;;;;;4918753;29;20033;-92
2024/03/17 10:07:49;;;;;;;0.00;0.00;;;;;;;;;;4919734;29;20040;-93
2024/03/17 10:10:16;;;;;;;0.10;0.10;;;;;;;;;;4920303;29;20036;-93
2024/03/17 10:12:42;;;;;;;0.10;0.10;;;;;;;;;;4911291;29;20107;-92
2024/03/17 10:15:11;;;;;;;0.10;0.10;;;;;;;;;;4909446;29;20104;-92
2024/03/17 10:17:37;;;;;;;0.08;0.08;;;;;;;;;;4912363;29;20039;-92
2024/03/17 10:20:20;;;;;;;0.10;0.10;;;;;;;;;;4909229;29;20034;-93
2024/03/17 10:22:59;;;;;;;0.00;0.00;;;;;;;;;;4915439;29;20080;-93
2024/03/17 10:25:25;;;;;;;0.10;0.10;;;;;;;;;;4907955;29;20029;-93
2024/03/17 10:27:52;;;;;;;0.00;0.00;;;;;;;;;;4910292;29;20277;-93
2024/03/17 10:30:19;;;;;;;0.10;0.10;;;;;;;;;;4923031;29;20059;-94
2024/03/17 10:32:46;;;;;;;0.10;0.10;;;;;;;;;;4907829;29;20044;-93
2024/03/17 10:35:26;;;;;;;0.00;0.00;;;;;;;;;;4914392;29;20039;-93
2024/03/17 10:37:57;;;;;;;0.00;0.00;;;;;;;;;;4912806;29;20065;-92
2024/03/17 10:40:24;;;;;;;0.10;0.10;;;;;;;;;;4907823;29;20028;-93
2024/03/17 10:42:50;;;;;;;0.00;0.00;;;;;;;;;;4910470;29;20052;-93
2024/03/17 10:45:16;;;;;;;0.00;0.00;;;;;;;;;;4913089;29;20024;-92
2024/03/17 10:47:44;;;;;;;0.00;0.00;;;;;;;;;;4917276;29;20028;-92
2024/03/17 10:50:16;;;;;;;0.10;0.10;;;;;;;;;;4912334;29;20028;-93
2024/03/17 10:52:49;;;;;;;0.00;0.00;;;;;;;;;;4905969;29;20064;-92
2024/03/17 10:55:25;;;;;;;0.00;0.00;;;;;;;;;;4913832;29;20032;-93
2024/03/17 10:57:52;;;;;;;0.00;0.00;;;;;;;;;;4913562;29;20036;-94
2024/03/17 11:00:21;;;;;;;0.10;0.10;;;;;;;;;;4912846;29;20039;-90
2024/03/17 11:02:48;;;;;;;0.10;0.10;;;;;;;;;;4911388;29;20032;-91
2024/03/17 11:05:24;;;;;;;0.00;0.00;;;;;;;;;;4912471;29;20024;-91
2024/03/17 11:07:51;;;;;;;0.00;0.00;;;;;;;;;;4914028;29;20028;-92
2024/03/17 11:10:25;;;;;;;0.00;0.00;;;;;;;;;;4911099;29;20043;-90
2024/03/17 11:12:56;;;;;;;0.00;0.00;;;;;;;;;;4922052;29;20119;-92
2024/03/17 11:15:25;;;;;;;0.00;0.00;;;;;;;;;;4912295;29;20492;-93
2024/03/17 11:17:52;;;;;;;0.00;0.00;;;;;;;;;;4913589;29;20044;-93
2024/03/17 11:20:23;;;;;;;0.00;0.00;;;;;;;;;;4912184;29;20088;-91
2024/03/17 11:22:50;;;;;;;0.00;0.00;;;;;;;;;;4917322;29;20029;-91
2024/03/17 11:25:30;;;;;;;0.00;0.00;;;;;;;;;;4916880;29;20061;-92
2024/03/17 11:27:57;;;;;;;0.00;0.00;;;;;;;;;;4916690;29;20029;-94
2024/03/17 11:30:46;;;;;;;0.00;0.00;;;;;;;;;;4909851;29;20065;-92
2024/03/17 11:33:30;;;;;;;0.00;0.00;;;;;;;;;;4918114;29;20497;-92
2024/03/17 11:36:29;;;;;;;0.00;0.00;;;;;;;;;;4916760;29;20047;-92
2024/03/17 11:39:01;;;;;;;0.00;0.00;;;;;;;;;;4920396;29;20113;-92
2024/03/17 11:41:34;;;;;;;0.00;0.00;;;;;;;;;;4914791;29;20028;-92
2024/03/17 11:44:20;;;;;;;0.00;0.00;;;;;;;;;;4911481;29;20032;-93
2024/03/17 11:46:50;;;;;;;0.00;0.00;;;;;;;;;;4908755;29;20128;-93
2024/03/17 11:49:24;;;;;;;0.00;0.00;;;;;;;;;;4912596;29;20056;-92
2024/03/17 11:51:50;;;;;;;0.05;0.05;;;;;;;;;;4903753;29;20080;-93
2024/03/17 11:54:21;;;;;;;0.00;0.00;;;;;;;;;;4904033;29;20055;-93
2024/03/17 11:56:49;;;;;;;0.00;0.00;;;;;;;;;;4905537;29;20029;-93
2024/03/17 11:59:17;;;;;;;0.00;0.00;;;;;;;;;;4908719;29;20057;-91
2024/03/17 12:01:43;;;;;;;0.00;0.00;;;;;;;;;;4905604;29;20075;-91
2024/03/17 12:04:10;;;;;;;0.00;0.00;;;;;;;;;;4911565;29;20043;-93
2024/03/17 12:06:36;;;;;;;0.00;0.00;;;;;;;;;;4911593;29;20028;-91
2024/03/17 12:09:20;;;;;;;0.00;0.00;;;;;;;;;;4909817;29;20127;-93
2024/03/17 12:11:47;;;;;;;0.00;0.00;;;;;;;;;;4904308;29;20035;-92
2024/03/17 12:14:14;;;;;;;0.00;0.00;;;;;;;;;;4906050;29;20478;-93
2024/03/17 12:16:48;;;;;;;0.00;0.00;;;;;;;;;;4904021;29;20686;-93
2024/03/17 12:19:16;;;;;;;0.00;0.00;;;;;;;;;;4906071;29;20247;-93
2024/03/17 12:21:43;;;;;;;0.00;0.00;;;;;;;;;;4907789;29;20092;-93
2024/03/17 12:24:20;;;;;;;0.00;0.00;;;;;;;;;;4909461;29;20037;-92
2024/03/17 12:26:49;;;;;;;0.00;0.00;;;;;;;;;;4909412;29;20024;-92
2024/03/17 12:29:30;;;;;;;0.00;0.00;;;;;;;;;;4914297;29;20100;-90
2024/03/17 12:31:56;;;;;;;0.00;0.00;;;;;;;;;;4911957;29;20590;-92
2024/03/17 12:34:23;;;;;;;0.00;0.00;;;;;;;;;;4915260;29;20128;-92
2024/03/17 12:36:49;;;;;;;0.00;0.00;;;;;;;;;;4909900;29;20037;-93
2024/03/17 12:39:39;;;;;;;0.00;0.00;;;;;;;;;;4908621;29;20039;-93
2024/03/17 12:42:06;;;;;;;0.00;0.00;;;;;;;;;;4913081;29;20047;-92
2024/03/17 12:44:33;;;;;;;0.00;0.00;;;;;;;;;;4909350;29;20091;-93
2024/03/17 12:47:03;;;;;;;0.00;0.00;;;;;;;;;;4912474;29;20480;-93
2024/03/17 12:49:30;;;;;;;0.00;0.00;;;;;;;;;;4913081;29;20024;-92
2024/03/17 12:51:56;;;;;;;0.00;0.00;;;;;;;;;;4909857;29;22178;-92
2024/03/17 12:54:24;;;;;;;0.00;0.00;;;;;;;;;;4912677;29;20036;-92
2024/03/17 13:02:26;;;;;;;0.00;0.00;;;;;;;;;;4912222;29;20043;-91
2024/03/17 13:05:09;;;;;;;0.00;0.00;;;;;;;;;;4921946;29;20547;-93
2024/03/17 13:08:19;;;;;;;0.00;0.00;;;;;;;;;;4916041;29;20160;-92
2024/03/17 13:10:45;;;;;;;0.00;0.00;;;;;;;;;;4913956;29;20028;-93
2024/03/17 13:13:15;;;;;;;0.00;0.00;;;;;;;;;;4922361;29;20039;-90
2024/03/17 13:15:41;;;;;;;0.00;0.00;;;;;;;;;;4915285;29;20130;-93
2024/03/17 13:18:07;;;;;;;0.00;0.00;;;;;;;;;;4914937;29;20149;-92
2024/03/17 13:20:34;;;;;;;0.00;0.00;;;;;;;;;;4919629;29;20499;-92
2024/03/17 13:23:00;;;;;;;0.00;0.00;;;;;;;;;;4916494;29;20530;-91
2024/03/17 13:25:29;;;;;;;0.00;0.00;;;;;;;;;;4916656;29;20064;-92
2024/03/17 13:27:55;;;;;;;0.00;0.00;;;;;;;;;;4917665;29;20051;-91
2024/03/17 13:30:23;;;;;;;0.00;0.00;;;;;;;;;;4925641;29;20024;-91
2024/03/17 13:32:55;;;;;;;0.00;0.00;;;;;;;;;;4930980;29;20032;-92
2024/03/17 13:35:22;;;;;;;0.00;0.00;;;;;;;;;;4917810;29;20124;-91
2024/03/17 13:37:51;;;;;;;0.00;0.00;;;;;;;;;;4914051;29;20039;-92
2024/03/17 13:40:21;;;;;;;0.00;0.00;;;14.40;95.20;;;;;;4918402;29;20257;-91
2024/03/17 13:42:52;;;;;;;0.00;0.00;;;14.50;95.00;;;;;;4911981;29;20249;-92
2024/03/17 13:45:20;;;;;;;0.00;0.00;;;;;;;;;;4917046;29;20039;-91
2024/03/17 13:47:57;;;;;;;0.00;0.00;;;14.40;95.20;;;;;;4911067;29;20020;-91
2024/03/17 13:50:23;;;;;;;0.00;0.00;;;;;;;;;;4916252;29;20024;-91
2024/03/17 13:52:51;;;;;;;0.00;0.00;;;;;;;;;;4916806;29;20041;-91
2024/03/17 13:55:19;;;;;;;0.00;0.00;;;14.60;95.40;;;;;;4918173;29;20056;-90
2024/03/17 13:57:47;;;;;;;0.00;0.00;;;14.60;95.90;;;;;;4895366;29;20043;-90
2024/03/17 14:00:15;;;;;;;0.00;0.00;;;14.60;94.80;;;;;;4913213;29;20142;-90
2024/03/17 14:02:45;;;;;;;0.00;0.00;;;;;;;;;;4885360;29;20041;-89
2024/03/17 14:05:18;;;;;;;0.00;0.00;;;14.50;95.20;;;;;;4880442;29;20127;-91
2024/03/17 14:07:45;;;;;;;0.00;0.00;;;;;;;;;;4929401;29;20101;-92
2024/03/17 14:10:11;;;;;;;0.00;0.00;;;;;;;;;;4920300;29;20063;-92
2024/03/17 14:12:39;;;;;;;0.00;0.00;;;;;;;;;;4911476;29;20043;-91
2024/03/17 14:15:05;;;;;;;0.00;0.00;;;;;;;;;;4917217;29;20097;-91
2024/03/17 14:17:31;;;;;;;0.00;0.00;;;;;;;;;;4913680;29;20361;-91
2024/03/17 14:19:57;;;;;;;0.00;0.00;;;;;;;;;;4900581;29;20040;-91
2024/03/17 14:22:23;;;;;;;0.00;0.00;;;;;;;;;;4916455;29;20096;-91
2024/03/17 14:24:49;;;;;;;0.00;0.00;;;;;;;;;;4917656;29;20093;-91
2024/03/17 14:27:16;;;;;;;0.00;0.00;;;;;;;;;;4915697;29;20028;-91
2024/03/17 14:29:42;;;;;;;0.00;0.00;;;;;;;;;;4920056;29;20040;-91
2024/03/17 14:32:08;;;;;;;0.00;0.00;;;;;;;;;;4915629;29;20089;-91
2024/03/17 14:34:38;;;;;;;0.00;0.00;;;;;;;;;;4916043;29;20067;-91
2024/03/17 14:37:04;;;;;;;0.00;0.00;;;;;;;;;;4913370;29;20091;-90
2024/03/17 14:39:33;;;;;;;0.00;0.00;;;;;;;;;;4915584;29;20033;-90
2024/03/17 14:41:59;;;;;;;0.00;0.00;;;;;;;;;;4913776;29;20035;-91
2024/03/17 14:51:00;;;;;;;0.00;0.00;;;14.30;96.00;;;;;;4915276;29;20471;-92
2024/03/17 14:53:26;;;;;;;0.00;0.00;;;;;;;;;;4916866;29;20032;-92
2024/03/17 14:55:52;;;;;;;0.00;0.00;;;;;;;;;;4913721;29;20040;-92
2024/03/17 14:58:18;;;;;;;0.00;0.00;;;14.20;96.70;;;;;;4912813;29;20047;-91
2024/03/17 15:00:46;;;;;;;0.00;0.00;;;;;;;;;;4911019;29;20044;-90